メインページ
METAR-TAF:

METAR-TAF

空港 :

テヘラン, イラン

メヘラーバード国際空港

緯度: 35-41N, 経度: 051-21E, 海抜: 1204m

現時点の気象観測

当レポートは8分前の13:00(UTC)に作成
西/北西の風 16kt
気温 9°C
湿度 29%
気圧 1016 hPa
視程10km以上
高度3500ftの雲は散在している
高度10000ftの千切れ雲あり

METAR: OIII 241300Z 30016KT 9999 SCT035 BKN100 09/M08 Q1016 A3001 NOSIG

時間: 16:38 (13:08 UTC)

予報

当レポートは2時間8分前の11:00(UTC)に作成
予報は24日の 12時(UTC)から 25日の 18時(UTC)まで有効
北西の風 8kt
視程: 8000m
高度4000ftの雲はほとんどない
高度10000ftの雲は散在している
24日の 12時(UTC)から 24日の 15時(UTC)まで一時的に
北西の風 17kt
視程: 6000m
高度3500ftの雲はほとんどない, 塔状積雲.
高度4000ftの雲は散在している
高度9000ftの千切れ雲あり
24日の 18時(UTC)から 24日の 20時(UTC)まで徐々に
北西の風 17kt、最大29ktの突風を伴う
視程10km以上
1,500メートル以下は雲なし、積乱雲なし

TAF: OIII 241100Z 2412/2518 32004MPS 8000 FEW040 SCT100 TEMPO 2412/2415 32009MPS 6000 FEW035TCU SCT040 BKN090 BECMG 2418/2420 32009G15MPS CAVOK

4,000以上の空港の気象観測と天気予報(METAR報とTAF報)

利用可能な観測所は地図上に黄色い丸と赤い丸で示す。

丸の上にカーソルを重ねると観測所名を参照できる。

次にクリックすると気象観測と天気予報を参照できる。

マップの切り替え:黒色「×」印の緑ボタンをクリックして拡大、「-」印の緑ボタンをクリックして縮小、緑色の三角印をクリックして隣りの地図に切り替え


METAR-TAF: